Time;durP1;ratioP1;P1;durP2;ratioP2;P2;SDS_P1;SDS_P2;PMS_P1;PMS_P2;Temp;Humidity;BMP_temperature;BMP_pressure;BME280_temperature;BME280_humidity;BME280_pressure;Samples;Min_cycle;Max_cycle;Signal;HPM_P1;HPM_P2
2023/01/30 00:00:00;;;;;;;2.2;2.2;;;;;;;4.3;100.0;101610;;;;
2023/01/30 00:01:02;;;;;;;2.2;2.2;;;;;;;4.3;100.0;101600;;;;
2023/01/30 00:02:00;;;;;;;2.2;2.2;;;;;;;4.3;100.0;101600;;;;
2023/01/30 00:03:00;;;;;;;2.2;2.2;;;;;;;4.4;100.0;101600;;;;
2023/01/30 00:04:00;;;;;;;2.2;2.2;;;;;;;4.4;100.0;101600;;;;
2023/01/30 00:05:00;;;;;;;2.2;2.2;;;;;;;4.4;100.0;101590;;;;
2023/01/30 00:06:00;;;;;;;2.2;2.2;;;;;;;4.4;100.0;101590;;;;
2023/01/30 00:07:00;;;;;;;2.2;2.2;;;;;;;4.4;100.0;101590;;;;
2023/01/30 00:08:00;;;;;;;2.2;2.2;;;;;;;4.4;100.0;101590;;;;
2023/01/30 00:09:00;;;;;;;2.2;2.2;;;;;;;4.4;100.0;101590;;;;
2023/01/30 00:10:00;;;;;;;2.2;2.2;;;;;;;4.4;100.0;101590;;;;
2023/01/30 00:11:04;;;;;;;2.2;2.2;;;;;;;4.5;100.0;101590;;;;
2023/01/30 00:12:00;;;;;;;2.2;2.2;;;;;;;4.5;100.0;101590;;;;
2023/01/30 00:13:00;;;;;;;2.2;2.2;;;;;;;4.5;100.0;101580;;;;
2023/01/30 00:14:00;;;;;;;2.2;2.2;;;;;;;4.5;100.0;101580;;;;
2023/01/30 00:15:00;;;;;;;2.2;2.2;;;;;;;4.6;100.0;101570;;;;
2023/01/30 00:16:00;;;;;;;2.2;2.2;;;;;;;4.6;100.0;101570;;;;
2023/01/30 00:17:00;;;;;;;2.2;2.2;;;;;;;4.5;100.0;101560;;;;
2023/01/30 00:18:00;;;;;;;2.2;2.2;;;;;;;4.5;100.0;101560;;;;
2023/01/30 00:19:00;;;;;;;2.2;2.2;;;;;;;4.4;100.0;101550;;;;
2023/01/30 00:20:00;;;;;;;2.2;2.2;;;;;;;4.4;100.0;101550;;;;
2023/01/30 00:21:02;;;;;;;2.2;2.2;;;;;;;4.5;100.0;101570;;;;
2023/01/30 00:22:00;;;;;;;2.2;2.2;;;;;;;4.5;100.0;101570;;;;
2023/01/30 00:23:01;;;;;;;2.2;2.2;;;;;;;4.5;100.0;101580;;;;
2023/01/30 00:24:00;;;;;;;2.2;2.2;;;;;;;4.5;100.0;101580;;;;
2023/01/30 00:25:00;;;;;;;2.2;2.2;;;;;;;4.6;100.0;101570;;;;
2023/01/30 00:26:00;;;;;;;2.2;2.2;;;;;;;4.6;100.0;101570;;;;
2023/01/30 00:27:00;;;;;;;1.9;1.9;;;;;;;4.6;100.0;101570;;;;
2023/01/30 00:28:00;;;;;;;1.9;1.9;;;;;;;4.6;100.0;101570;;;;
2023/01/30 00:29:00;;;;;;;1.9;1.9;;;;;;;4.7;100.0;101570;;;;
2023/01/30 00:30:10;;;;;;;1.9;1.9;;;;;;;4.7;100.0;101570;;;;
2023/01/30 00:31:00;;;;;;;1.9;1.9;;;;;;;4.8;100.0;101570;;;;
2023/01/30 00:32:00;;;;;;;1.9;1.9;;;;;;;4.8;100.0;101570;;;;
2023/01/30 00:33:00;;;;;;;1.9;1.9;;;;;;;4.8;100.0;101570;;;;
2023/01/30 00:34:00;;;;;;;1.9;1.9;;;;;;;4.8;100.0;101570;;;;
2023/01/30 00:35:00;;;;;;;1.9;1.9;;;;;;;4.8;100.0;101570;;;;
2023/01/30 00:36:00;;;;;;;1.9;1.9;;;;;;;4.8;100.0;101570;;;;
2023/01/30 00:37:08;;;;;;;1.9;1.9;;;;;;;4.8;100.0;101560;;;;
2023/01/30 00:38:00;;;;;;;1.9;1.9;;;;;;;4.8;100.0;101560;;;;
2023/01/30 00:39:00;;;;;;;1.9;1.9;;;;;;;5.0;100.0;101560;;;;
2023/01/30 00:40:00;;;;;;;1.9;1.9;;;;;;;5.0;100.0;101560;;;;
2023/01/30 00:41:00;;;;;;;1.9;1.9;;;;;;;4.9;100.0;101550;;;;
2023/01/30 00:47:07;;;;;;;2.3;2.3;;;;;;;4.8;100.0;101550;;;;
2023/01/30 00:48:00;;;;;;;2.3;2.3;;;;;;;4.8;100.0;101550;;;;
2023/01/30 00:49:00;;;;;;;2.3;2.3;;;;;;;4.8;100.0;101550;;;;
2023/01/30 00:50:00;;;;;;;2.3;2.3;;;;;;;4.8;100.0;101550;;;;
2023/01/30 00:51:00;;;;;;;2.3;2.3;;;;;;;4.9;100.0;101550;;;;
2023/01/30 00:52:00;;;;;;;2.3;2.3;;;;;;;4.9;100.0;101550;;;;
2023/01/30 00:53:00;;;;;;;2.3;2.3;;;;;;;4.8;100.0;101560;;;;
2023/01/30 00:54:00;;;;;;;2.3;2.3;;;;;;;4.8;100.0;101560;;;;
2023/01/30 00:55:00;;;;;;;2.3;2.3;;;;;;;4.9;100.0;101560;;;;
2023/01/30 00:56:00;;;;;;;2.3;2.3;;;;;;;4.9;100.0;101560;;;;
2023/01/30 00:57:00;;;;;;;2.3;2.3;;;;;;;4.8;100.0;101540;;;;
2023/01/30 00:58:00;;;;;;;2.3;2.3;;;;;;;4.8;100.0;101540;;;;
2023/01/30 00:59:00;;;;;;;2.3;2.3;;;;;;;4.9;100.0;101550;;;;
2023/01/30 01:00:00;;;;;;;2.3;2.3;;;;;;;4.9;100.0;101550;;;;
2023/01/30 01:01:00;;;;;;;2.3;2.3;;;;;;;4.9;100.0;101540;;;;
2023/01/30 01:02:00;;;;;;;2.3;2.3;;;;;;;4.9;100.0;101540;;;;
2023/01/30 01:03:01;;;;;;;2.3;2.3;;;;;;;4.9;100.0;101540;;;;
2023/01/30 01:04:00;;;;;;;2.3;2.3;;;;;;;4.9;100.0;101540;;;;
2023/01/30 01:05:00;;;;;;;2.3;2.3;;;;;;;4.9;100.0;101550;;;;
2023/01/30 01:06:00;;;;;;;2.3;2.3;;;;;;;4.9;100.0;101550;;;;
2023/01/30 01:07:00;;;;;;;2.0;2.0;;;;;;;4.9;100.0;101550;;;;
2023/01/30 01:08:00;;;;;;;2.0;2.0;;;;;;;4.9;100.0;101550;;;;
2023/01/30 01:09:00;;;;;;;2.0;2.0;;;;;;;4.9;100.0;101550;;;;
2023/01/30 01:10:01;;;;;;;2.0;2.0;;;;;;;4.9;100.0;101550;;;;
2023/01/30 01:11:00;;;;;;;2.0;2.0;;;;;;;4.9;100.0;101540;;;;
2023/01/30 01:12:00;;;;;;;2.0;2.0;;;;;;;4.9;100.0;101540;;;;
2023/01/30 01:13:00;;;;;;;2.0;2.0;;;;;;;5.0;100.0;101540;;;;
2023/01/30 01:14:01;;;;;;;2.0;2.0;;;;;;;5.0;100.0;101540;;;;
2023/01/30 01:15:00;;;;;;;2.0;2.0;;;;;;;5.0;100.0;101530;;;;
2023/01/30 01:16:00;;;;;;;2.0;2.0;;;;;;;5.0;100.0;101530;;;;
2023/01/30 01:17:00;;;;;;;2.0;2.0;;;;;;;5.0;100.0;101520;;;;
2023/01/30 01:18:00;;;;;;;2.0;2.0;;;;;;;5.0;100.0;101520;;;;
2023/01/30 01:19:01;;;;;;;2.0;2.0;;;;;;;5.1;100.0;101520;;;;
2023/01/30 01:20:00;;;;;;;2.0;2.0;;;;;;;5.1;100.0;101520;;;;
2023/01/30 01:21:00;;;;;;;2.0;2.0;;;;;;;5.1;100.0;101530;;;;
2023/01/30 01:22:00;;;;;;;2.0;2.0;;;;;;;5.1;100.0;101530;;;;
2023/01/30 01:23:00;;;;;;;2.0;2.0;;;;;;;5.1;100.0;101520;;;;
2023/01/30 01:24:00;;;;;;;2.0;2.0;;;;;;;5.1;100.0;101520;;;;
2023/01/30 01:25:00;;;;;;;2.0;2.0;;;;;;;5.0;100.0;101520;;;;
2023/01/30 01:26:01;;;;;;;2.0;2.0;;;;;;;5.0;100.0;101520;;;;
2023/01/30 01:27:00;;;;;;;3.4;3.1;;;;;;;5.0;100.0;101520;;;;
2023/01/30 01:28:00;;;;;;;3.4;3.1;;;;;;;5.0;100.0;101520;;;;
2023/01/30 01:29:00;;;;;;;3.4;3.1;;;;;;;4.9;100.0;101520;;;;
2023/01/30 01:30:02;;;;;;;3.4;3.1;;;;;;;4.9;100.0;101520;;;;
2023/01/30 01:31:06;;;;;;;3.4;3.1;;;;;;;5.0;100.0;101520;;;;
2023/01/30 01:32:01;;;;;;;3.4;3.1;;;;;;;5.0;100.0;101520;;;;
2023/01/30 01:33:00;;;;;;;3.4;3.1;;;;;;;5.1;100.0;101520;;;;
2023/01/30 01:34:00;;;;;;;3.4;3.1;;;;;;;5.1;100.0;101520;;;;
2023/01/30 01:35:00;;;;;;;3.4;3.1;;;;;;;5.1;100.0;101520;;;;
2023/01/30 01:36:02;;;;;;;3.4;3.1;;;;;;;5.1;100.0;101520;;;;
2023/01/30 01:37:00;;;;;;;3.4;3.1;;;;;;;5.2;100.0;101520;;;;
2023/01/30 01:38:00;;;;;;;3.4;3.1;;;;;;;5.2;100.0;101520;;;;
2023/01/30 01:39:02;;;;;;;3.4;3.1;;;;;;;5.2;100.0;101520;;;;
2023/01/30 01:41:00;;;;;;;3.4;3.1;;;;;;;5.2;100.0;101520;;;;
2023/01/30 01:42:00;;;;;;;3.4;3.1;;;;;;;5.2;100.0;101520;;;;
2023/01/30 01:43:00;;;;;;;3.4;3.1;;;;;;;5.2;100.0;101500;;;;
2023/01/30 01:44:02;;;;;;;3.4;3.1;;;;;;;5.2;100.0;101500;;;;
2023/01/30 01:45:04;;;;;;;3.4;3.1;;;;;;;5.3;100.0;101500;;;;
2023/01/30 01:46:05;;;;;;;1.9;1.9;;;;;;;5.3;100.0;101500;;;;
2023/01/30 01:47:00;;;;;;;1.9;1.9;;;;;;;5.3;100.0;101490;;;;
2023/01/30 01:48:04;;;;;;;1.9;1.9;;;;;;;5.3;100.0;101490;;;;
2023/01/30 01:49:02;;;;;;;1.9;1.9;;;;;;;5.2;100.0;101490;;;;
2023/01/30 01:50:01;;;;;;;1.9;1.9;;;;;;;5.2;100.0;101490;;;;
2023/01/30 01:51:02;;;;;;;1.9;1.9;;;;;;;5.3;100.0;101490;;;;
2023/01/30 01:52:02;;;;;;;1.9;1.9;;;;;;;5.3;100.0;101490;;;;
2023/01/30 01:53:01;;;;;;;1.9;1.9;;;;;;;5.3;100.0;101490;;;;
2023/01/30 01:54:05;;;;;;;1.9;1.9;;;;;;;5.3;100.0;101490;;;;
2023/01/30 01:55:03;;;;;;;1.9;1.9;;;;;;;5.3;100.0;101480;;;;
2023/01/30 01:56:01;;;;;;;1.9;1.9;;;;;;;5.3;100.0;101480;;;;
2023/01/30 01:57:03;;;;;;;1.9;1.9;;;;;;;5.3;100.0;101480;;;;
2023/01/30 01:58:04;;;;;;;1.9;1.9;;;;;;;5.3;100.0;101480;;;;
2023/01/30 01:59:02;;;;;;;1.9;1.9;;;;;;;5.4;100.0;101480;;;;
2023/01/30 02:00:04;;;;;;;1.9;1.9;;;;;;;5.4;100.0;101480;;;;
2023/01/30 02:01:01;;;;;;;1.9;1.9;;;;;;;5.3;100.0;101470;;;;
2023/01/30 02:02:04;;;;;;;1.9;1.9;;;;;;;5.3;100.0;101470;;;;
2023/01/30 02:03:02;;;;;;;1.9;1.9;;;;;;;5.3;100.0;101460;;;;
2023/01/30 02:04:03;;;;;;;1.9;1.9;;;;;;;5.3;100.0;101460;;;;
2023/01/30 02:05:02;;;;;;;1.9;1.9;;;;;;;5.4;100.0;101470;;;;
2023/01/30 02:06:02;;;;;;;1.6;1.6;;;;;;;5.4;100.0;101470;;;;
2023/01/30 02:07:01;;;;;;;1.6;1.6;;;;;;;5.3;100.0;101470;;;;
2023/01/30 02:08:04;;;;;;;1.6;1.6;;;;;;;5.3;100.0;101470;;;;
2023/01/30 02:09:04;;;;;;;1.6;1.6;;;;;;;5.4;100.0;101460;;;;
2023/01/30 02:10:01;;;;;;;1.6;1.6;;;;;;;5.4;100.0;101460;;;;
2023/01/30 02:11:05;;;;;;;1.6;1.6;;;;;;;5.4;100.0;101460;;;;
2023/01/30 02:12:02;;;;;;;1.6;1.6;;;;;;;5.4;100.0;101460;;;;
2023/01/30 02:13:00;;;;;;;1.6;1.6;;;;;;;5.4;100.0;101460;;;;
2023/01/30 02:14:01;;;;;;;1.6;1.6;;;;;;;5.4;100.0;101460;;;;
2023/01/30 02:15:01;;;;;;;1.6;1.6;;;;;;;5.5;100.0;101450;;;;
2023/01/30 02:16:01;;;;;;;1.6;1.6;;;;;;;5.5;100.0;101450;;;;
2023/01/30 02:17:00;;;;;;;1.6;1.6;;;;;;;5.4;100.0;101450;;;;
2023/01/30 02:18:00;;;;;;;1.6;1.6;;;;;;;5.4;100.0;101450;;;;
2023/01/30 02:19:00;;;;;;;1.6;1.6;;;;;;;5.5;100.0;101450;;;;
2023/01/30 02:20:03;;;;;;;1.6;1.6;;;;;;;5.5;100.0;101450;;;;
2023/01/30 02:21:01;;;;;;;1.6;1.6;;;;;;;5.4;100.0;101450;;;;
2023/01/30 02:22:10;;;;;;;1.6;1.6;;;;;;;5.4;100.0;101450;;;;
2023/01/30 02:23:10;;;;;;;1.6;1.6;;;;;;;5.3;100.0;101440;;;;
2023/01/30 02:24:10;;;;;;;1.6;1.6;;;;;;;5.3;100.0;101440;;;;
2023/01/30 02:25:10;;;;;;;1.6;1.6;;;;;;;5.4;100.0;101450;;;;
2023/01/30 02:26:10;;;;;;;1.7;1.7;;;;;;;5.4;100.0;101450;;;;
2023/01/30 02:27:06;;;;;;;1.7;1.7;;;;;;;5.5;100.0;101450;;;;
2023/01/30 02:28:08;;;;;;;1.7;1.7;;;;;;;5.5;100.0;101450;;;;
2023/01/30 02:29:00;;;;;;;1.7;1.7;;;;;;;5.5;100.0;101440;;;;
2023/01/30 02:30:10;;;;;;;1.7;1.7;;;;;;;5.5;100.0;101440;;;;
2023/01/30 02:31:08;;;;;;;1.7;1.7;;;;;;;5.5;100.0;101430;;;;
2023/01/30 02:32:06;;;;;;;1.7;1.7;;;;;;;5.5;100.0;101430;;;;
2023/01/30 02:33:08;;;;;;;1.7;1.7;;;;;;;5.6;100.0;101430;;;;
2023/01/30 02:34:10;;;;;;;1.7;1.7;;;;;;;5.6;100.0;101430;;;;
2023/01/30 02:35:10;;;;;;;1.7;1.7;;;;;;;5.6;100.0;101420;;;;
2023/01/30 02:36:08;;;;;;;1.7;1.7;;;;;;;5.6;100.0;101420;;;;
2023/01/30 02:37:01;;;;;;;1.7;1.7;;;;;;;5.5;100.0;101420;;;;
2023/01/30 02:38:04;;;;;;;1.7;1.7;;;;;;;5.5;100.0;101420;;;;
2023/01/30 02:39:10;;;;;;;1.7;1.7;;;;;;;5.5;100.0;101430;;;;
2023/01/30 02:40:01;;;;;;;1.7;1.7;;;;;;;5.5;100.0;101430;;;;
2023/01/30 02:41:08;;;;;;;1.7;1.7;;;;;;;5.5;100.0;101430;;;;
2023/01/30 02:42:03;;;;;;;1.7;1.7;;;;;;;5.5;100.0;101430;;;;
2023/01/30 02:43:01;;;;;;;1.7;1.7;;;;;;;5.6;100.0;101440;;;;
2023/01/30 02:44:05;;;;;;;1.7;1.7;;;;;;;5.6;100.0;101440;;;;
2023/01/30 02:45:00;;;;;;;1.7;1.7;;;;;;;5.6;100.0;101430;;;;
2023/01/30 02:46:00;;;;;;;1.7;1.7;;;;;;;5.6;100.0;101430;;;;
2023/01/30 02:47:05;;;;;;;1.7;1.7;;;;;;;5.5;100.0;101420;;;;
2023/01/30 02:48:03;;;;;;;1.7;1.7;;;;;;;5.5;100.0;101420;;;;
2023/01/30 02:49:08;;;;;;;1.7;1.7;;;;;;;5.6;100.0;101420;;;;
2023/01/30 02:50:06;;;;;;;1.7;1.7;;;;;;;5.6;100.0;101420;;;;
2023/01/30 02:51:06;;;;;;;1.7;1.7;;;;;;;5.5;100.0;101410;;;;
2023/01/30 02:52:01;;;;;;;1.7;1.7;;;;;;;5.5;100.0;101410;;;;
2023/01/30 02:53:01;;;;;;;1.7;1.7;;;;;;;5.6;100.0;101420;;;;
2023/01/30 02:54:00;;;;;;;1.7;1.7;;;;;;;5.6;100.0;101420;;;;
2023/01/30 02:55:05;;;;;;;1.7;1.7;;;;;;;5.6;100.0;101410;;;;
2023/01/30 02:56:00;;;;;;;1.7;1.7;;;;;;;5.6;100.0;101410;;;;
2023/01/30 02:57:00;;;;;;;1.7;1.7;;;;;;;5.5;100.0;101400;;;;
2023/01/30 02:58:02;;;;;;;1.7;1.7;;;;;;;5.5;100.0;101400;;;;
2023/01/30 02:59:05;;;;;;;1.7;1.7;;;;;;;5.5;100.0;101410;;;;
2023/01/30 03:00:02;;;;;;;1.7;1.7;;;;;;;5.5;100.0;101410;;;;
2023/01/30 03:01:09;;;;;;;1.7;1.7;;;;;;;5.6;100.0;101410;;;;
2023/01/30 03:02:10;;;;;;;1.7;1.7;;;;;;;5.6;100.0;101410;;;;
2023/01/30 03:03:09;;;;;;;1.7;1.7;;;;;;;5.5;100.0;101410;;;;
2023/01/30 03:04:08;;;;;;;1.7;1.7;;;;;;;5.5;100.0;101410;;;;
2023/01/30 03:05:10;;;;;;;1.7;1.7;;;;;;;5.5;100.0;101400;;;;
2023/01/30 03:06:10;;;;;;;1.8;1.8;;;;;;;5.5;100.0;101400;;;;
2023/01/30 03:07:03;;;;;;;1.8;1.8;;;;;;;5.6;100.0;101400;;;;
2023/01/30 03:08:08;;;;;;;1.8;1.8;;;;;;;5.6;100.0;101400;;;;
2023/01/30 03:09:00;;;;;;;1.8;1.8;;;;;;;5.5;100.0;101390;;;;
2023/01/30 03:10:05;;;;;;;1.8;1.8;;;;;;;5.5;100.0;101390;;;;
2023/01/30 03:11:03;;;;;;;1.8;1.8;;;;;;;5.5;100.0;101400;;;;
2023/01/30 03:12:04;;;;;;;1.8;1.8;;;;;;;5.5;100.0;101400;;;;
2023/01/30 03:13:04;;;;;;;1.8;1.8;;;;;;;5.5;100.0;101390;;;;
2023/01/30 03:14:05;;;;;;;1.8;1.8;;;;;;;5.5;100.0;101390;;;;
2023/01/30 03:15:07;;;;;;;1.8;1.8;;;;;;;5.5;100.0;101390;;;;
2023/01/30 03:16:10;;;;;;;1.8;1.8;;;;;;;5.5;100.0;101390;;;;
2023/01/30 03:17:02;;;;;;;1.8;1.8;;;;;;;5.5;100.0;101390;;;;
2023/01/30 03:18:01;;;;;;;1.8;1.8;;;;;;;5.5;100.0;101390;;;;
2023/01/30 03:19:02;;;;;;;1.8;1.8;;;;;;;5.5;100.0;101390;;;;
2023/01/30 03:20:00;;;;;;;1.8;1.8;;;;;;;5.5;100.0;101390;;;;
2023/01/30 03:21:05;;;;;;;1.8;1.8;;;;;;;5.5;100.0;101390;;;;
2023/01/30 03:22:00;;;;;;;1.8;1.8;;;;;;;5.5;100.0;101390;;;;
2023/01/30 03:23:00;;;;;;;1.8;1.8;;;;;;;5.6;100.0;101390;;;;
2023/01/30 03:24:00;;;;;;;1.8;1.8;;;;;;;5.6;100.0;101390;;;;
2023/01/30 03:25:00;;;;;;;1.8;1.8;;;;;;;5.6;100.0;101390;;;;
2023/01/30 03:26:03;;;;;;;1.5;1.5;;;;;;;5.6;100.0;101390;;;;
2023/01/30 03:27:04;;;;;;;1.5;1.5;;;;;;;5.7;100.0;101380;;;;
2023/01/30 03:28:01;;;;;;;1.5;1.5;;;;;;;5.7;100.0;101380;;;;
2023/01/30 03:29:01;;;;;;;1.5;1.5;;;;;;;5.7;100.0;101390;;;;
2023/01/30 03:30:00;;;;;;;1.5;1.5;;;;;;;5.7;100.0;101390;;;;
2023/01/30 03:31:00;;;;;;;1.5;1.5;;;;;;;5.6;100.0;101380;;;;
2023/01/30 03:32:00;;;;;;;1.5;1.5;;;;;;;5.6;100.0;101380;;;;
2023/01/30 03:33:00;;;;;;;1.5;1.5;;;;;;;5.7;100.0;101380;;;;
2023/01/30 03:34:00;;;;;;;1.5;1.5;;;;;;;5.7;100.0;101380;;;;
2023/01/30 03:35:00;;;;;;;1.5;1.5;;;;;;;5.7;100.0;101390;;;;
2023/01/30 03:36:00;;;;;;;1.5;1.5;;;;;;;5.7;100.0;101390;;;;
2023/01/30 03:37:01;;;;;;;1.5;1.5;;;;;;;5.7;100.0;101380;;;;
2023/01/30 03:38:00;;;;;;;1.5;1.5;;;;;;;5.7;100.0;101380;;;;
2023/01/30 03:39:00;;;;;;;1.5;1.5;;;;;;;5.7;100.0;101370;;;;
2023/01/30 03:40:00;;;;;;;1.5;1.5;;;;;;;5.7;100.0;101370;;;;
2023/01/30 03:41:01;;;;;;;1.5;1.5;;;;;;;5.6;100.0;101370;;;;
2023/01/30 03:42:00;;;;;;;1.5;1.5;;;;;;;5.6;100.0;101370;;;;
2023/01/30 03:43:00;;;;;;;1.5;1.5;;;;;;;5.7;100.0;101370;;;;
2023/01/30 03:44:00;;;;;;;1.5;1.5;;;;;;;5.7;100.0;101370;;;;
2023/01/30 03:45:00;;;;;;;1.5;1.5;;;;;;;5.6;100.0;101360;;;;
2023/01/30 03:46:00;;;;;;;2.1;2.1;;;;;;;5.6;100.0;101360;;;;
2023/01/30 03:47:00;;;;;;;2.1;2.1;;;;;;;5.6;100.0;101370;;;;
2023/01/30 03:48:00;;;;;;;2.1;2.1;;;;;;;5.6;100.0;101370;;;;
2023/01/30 03:49:00;;;;;;;2.1;2.1;;;;;;;5.7;100.0;101370;;;;
2023/01/30 03:50:00;;;;;;;2.1;2.1;;;;;;;5.7;100.0;101370;;;;
2023/01/30 03:51:00;;;;;;;2.1;2.1;;;;;;;5.7;100.0;101370;;;;
2023/01/30 03:52:00;;;;;;;2.1;2.1;;;;;;;5.7;100.0;101370;;;;
2023/01/30 03:53:00;;;;;;;2.1;2.1;;;;;;;5.7;100.0;101360;;;;
2023/01/30 03:54:00;;;;;;;2.1;2.1;;;;;;;5.7;100.0;101360;;;;
2023/01/30 03:55:01;;;;;;;2.1;2.1;;;;;;;5.7;100.0;101360;;;;
2023/01/30 03:56:00;;;;;;;2.1;2.1;;;;;;;5.7;100.0;101360;;;;
2023/01/30 03:57:00;;;;;;;2.1;2.1;;;;;;;5.7;100.0;101370;;;;
2023/01/30 03:58:00;;;;;;;2.1;2.1;;;;;;;5.7;100.0;101370;;;;
2023/01/30 03:59:00;;;;;;;2.1;2.1;;;;;;;5.7;100.0;101370;;;;
2023/01/30 04:00:00;;;;;;;2.1;2.1;;;;;;;5.7;100.0;101370;;;;
2023/01/30 04:01:00;;;;;;;2.1;2.1;;;;;;;5.7;100.0;101380;;;;
2023/01/30 04:02:00;;;;;;;2.1;2.1;;;;;;;5.7;100.0;101380;;;;
2023/01/30 04:03:00;;;;;;;2.1;2.1;;;;;;;5.8;100.0;101370;;;;
2023/01/30 04:04:00;;;;;;;2.1;2.1;;;;;;;5.8;100.0;101370;;;;
2023/01/30 04:05:00;;;;;;;2.1;2.1;;;;;;;5.8;100.0;101370;;;;
2023/01/30 04:06:00;;;;;;;1.6;1.6;;;;;;;5.8;100.0;101370;;;;
2023/01/30 04:07:00;;;;;;;1.6;1.6;;;;;;;5.8;100.0;101370;;;;
2023/01/30 04:08:00;;;;;;;1.6;1.6;;;;;;;5.8;100.0;101370;;;;
2023/01/30 04:09:00;;;;;;;1.6;1.6;;;;;;;5.8;100.0;101370;;;;
2023/01/30 04:10:00;;;;;;;1.6;1.6;;;;;;;5.8;100.0;101370;;;;
2023/01/30 04:11:00;;;;;;;1.6;1.6;;;;;;;5.9;100.0;101370;;;;
2023/01/30 04:12:00;;;;;;;1.6;1.6;;;;;;;5.9;100.0;101370;;;;
2023/01/30 04:13:00;;;;;;;1.6;1.6;;;;;;;5.8;100.0;101370;;;;
2023/01/30 04:14:00;;;;;;;1.6;1.6;;;;;;;5.8;100.0;101370;;;;
2023/01/30 04:15:00;;;;;;;1.6;1.6;;;;;;;5.8;100.0;101370;;;;
2023/01/30 04:16:10;;;;;;;1.6;1.6;;;;;;;5.8;100.0;101370;;;;
2023/01/30 04:17:00;;;;;;;1.6;1.6;;;;;;;5.7;100.0;101370;;;;
2023/01/30 04:18:00;;;;;;;1.6;1.6;;;;;;;5.7;100.0;101370;;;;
2023/01/30 04:19:00;;;;;;;1.6;1.6;;;;;;;5.8;100.0;101380;;;;
2023/01/30 04:20:00;;;;;;;1.6;1.6;;;;;;;5.8;100.0;101380;;;;
2023/01/30 04:21:00;;;;;;;1.6;1.6;;;;;;;5.8;100.0;101370;;;;
2023/01/30 04:22:00;;;;;;;1.6;1.6;;;;;;;5.8;100.0;101370;;;;
2023/01/30 04:23:00;;;;;;;1.6;1.6;;;;;;;5.8;100.0;101360;;;;
2023/01/30 04:24:00;;;;;;;1.6;1.6;;;;;;;5.8;100.0;101360;;;;
2023/01/30 04:25:00;;;;;;;1.6;1.6;;;;;;;5.8;100.0;101360;;;;
2023/01/30 04:26:00;;;;;;;1.5;1.5;;;;;;;5.8;100.0;101360;;;;
2023/01/30 04:27:00;;;;;;;1.5;1.5;;;;;;;5.7;100.0;101360;;;;
2023/01/30 04:28:00;;;;;;;1.5;1.5;;;;;;;5.7;100.0;101360;;;;
2023/01/30 04:29:00;;;;;;;1.5;1.5;;;;;;;5.8;100.0;101370;;;;
2023/01/30 04:30:00;;;;;;;1.5;1.5;;;;;;;5.8;100.0;101370;;;;
2023/01/30 04:31:00;;;;;;;1.5;1.5;;;;;;;5.8;100.0;101360;;;;
2023/01/30 04:32:00;;;;;;;1.5;1.5;;;;;;;5.8;100.0;101360;;;;
2023/01/30 04:33:00;;;;;;;1.5;1.5;;;;;;;5.9;100.0;101370;;;;
2023/01/30 04:34:00;;;;;;;1.5;1.5;;;;;;;5.9;100.0;101370;;;;
2023/01/30 04:35:00;;;;;;;1.5;1.5;;;;;;;5.9;100.0;101360;;;;
2023/01/30 04:36:02;;;;;;;1.5;1.5;;;;;;;5.9;100.0;101360;;;;
2023/01/30 04:37:00;;;;;;;1.5;1.5;;;;;;;5.9;100.0;101360;;;;
2023/01/30 04:38:00;;;;;;;1.5;1.5;;;;;;;5.9;100.0;101360;;;;
2023/01/30 04:39:00;;;;;;;1.5;1.5;;;;;;;5.9;100.0;101370;;;;
2023/01/30 04:40:00;;;;;;;1.5;1.5;;;;;;;5.9;100.0;101370;;;;
2023/01/30 04:41:01;;;;;;;1.5;1.5;;;;;;;5.9;100.0;101370;;;;
2023/01/30 04:42:00;;;;;;;1.5;1.5;;;;;;;5.9;100.0;101370;;;;
2023/01/30 04:43:00;;;;;;;1.5;1.5;;;;;;;5.9;100.0;101370;;;;
2023/01/30 04:44:00;;;;;;;1.5;1.5;;;;;;;5.9;100.0;101370;;;;
2023/01/30 04:45:00;;;;;;;1.5;1.5;;;;;;;6.0;100.0;101370;;;;
2023/01/30 04:46:00;;;;;;;1.9;1.8;;;;;;;6.0;100.0;101370;;;;
2023/01/30 04:47:00;;;;;;;1.9;1.8;;;;;;;5.9;100.0;101370;;;;
2023/01/30 04:48:00;;;;;;;1.9;1.8;;;;;;;5.9;100.0;101370;;;;
2023/01/30 04:49:00;;;;;;;1.9;1.8;;;;;;;6.0;100.0;101370;;;;
2023/01/30 04:50:00;;;;;;;1.9;1.8;;;;;;;6.0;100.0;101370;;;;
2023/01/30 04:51:00;;;;;;;1.9;1.8;;;;;;;5.9;100.0;101370;;;;
2023/01/30 04:52:00;;;;;;;1.9;1.8;;;;;;;5.9;100.0;101370;;;;
2023/01/30 04:53:00;;;;;;;1.9;1.8;;;;;;;6.0;100.0;101370;;;;
2023/01/30 04:54:00;;;;;;;1.9;1.8;;;;;;;6.0;100.0;101370;;;;
2023/01/30 04:55:00;;;;;;;1.9;1.8;;;;;;;5.9;100.0;101360;;;;
2023/01/30 04:56:00;;;;;;;1.9;1.8;;;;;;;5.9;100.0;101360;;;;
2023/01/30 04:57:00;;;;;;;1.9;1.8;;;;;;;5.9;100.0;101350;;;;
2023/01/30 04:58:00;;;;;;;1.9;1.8;;;;;;;5.9;100.0;101350;;;;
2023/01/30 04:59:00;;;;;;;1.9;1.8;;;;;;;5.8;100.0;101360;;;;
2023/01/30 05:00:00;;;;;;;1.9;1.8;;;;;;;5.8;100.0;101360;;;;
2023/01/30 05:01:10;;;;;;;1.9;1.8;;;;;;;6.0;100.0;101360;;;;
2023/01/30 05:02:00;;;;;;;1.9;1.8;;;;;;;6.0;100.0;101360;;;;
2023/01/30 05:03:00;;;;;;;1.9;1.8;;;;;;;6.0;100.0;101370;;;;
2023/01/30 05:04:02;;;;;;;1.9;1.8;;;;;;;6.0;100.0;101370;;;;
2023/01/30 05:05:00;;;;;;;1.9;1.8;;;;;;;6.1;100.0;101380;;;;
2023/01/30 05:06:00;;;;;;;2.6;2.5;;;;;;;6.1;100.0;101380;;;;
2023/01/30 05:07:00;;;;;;;2.6;2.5;;;;;;;6.0;100.0;101370;;;;
2023/01/30 05:08:01;;;;;;;2.6;2.5;;;;;;;6.0;100.0;101370;;;;
2023/01/30 05:09:01;;;;;;;2.6;2.5;;;;;;;6.0;100.0;101370;;;;
2023/01/30 05:10:01;;;;;;;2.6;2.5;;;;;;;6.0;100.0;101370;;;;
2023/01/30 05:11:00;;;;;;;2.6;2.5;;;;;;;6.0;100.0;101380;;;;
2023/01/30 05:12:00;;;;;;;2.6;2.5;;;;;;;6.0;100.0;101380;;;;
2023/01/30 05:13:01;;;;;;;2.6;2.5;;;;;;;6.1;100.0;101380;;;;
2023/01/30 05:14:00;;;;;;;2.6;2.5;;;;;;;6.1;100.0;101380;;;;
2023/01/30 05:15:00;;;;;;;2.6;2.5;;;;;;;6.1;100.0;101380;;;;
2023/01/30 05:16:00;;;;;;;2.6;2.5;;;;;;;6.1;100.0;101380;;;;
2023/01/30 05:17:00;;;;;;;2.6;2.5;;;;;;;6.1;100.0;101380;;;;
2023/01/30 05:18:00;;;;;;;2.6;2.5;;;;;;;6.1;100.0;101380;;;;
2023/01/30 05:19:00;;;;;;;2.6;2.5;;;;;;;6.1;100.0;101370;;;;
2023/01/30 05:20:00;;;;;;;2.6;2.5;;;;;;;6.1;100.0;101370;;;;
2023/01/30 05:21:03;;;;;;;2.6;2.5;;;;;;;6.1;100.0;101370;;;;
2023/01/30 05:22:00;;;;;;;2.6;2.5;;;;;;;6.1;100.0;101370;;;;
2023/01/30 05:23:00;;;;;;;2.6;2.5;;;;;;;6.1;100.0;101360;;;;
2023/01/30 05:24:00;;;;;;;2.6;2.5;;;;;;;6.1;100.0;101360;;;;
2023/01/30 05:25:00;;;;;;;2.6;2.5;;;;;;;6.1;100.0;101360;;;;
2023/01/30 05:26:01;;;;;;;1.7;1.7;;;;;;;6.1;100.0;101360;;;;
2023/01/30 05:27:00;;;;;;;1.7;1.7;;;;;;;6.0;100.0;101360;;;;
2023/01/30 05:28:00;;;;;;;1.7;1.7;;;;;;;6.0;100.0;101360;;;;
2023/01/30 05:29:01;;;;;;;1.7;1.7;;;;;;;6.0;100.0;101360;;;;
2023/01/30 05:30:00;;;;;;;1.7;1.7;;;;;;;6.0;100.0;101360;;;;
2023/01/30 05:31:02;;;;;;;1.7;1.7;;;;;;;6.2;100.0;101350;;;;
2023/01/30 05:32:00;;;;;;;1.7;1.7;;;;;;;6.2;100.0;101350;;;;
2023/01/30 05:33:00;;;;;;;1.7;1.7;;;;;;;6.1;100.0;101360;;;;
2023/01/30 05:34:00;;;;;;;1.7;1.7;;;;;;;6.1;100.0;101360;;;;
2023/01/30 05:35:00;;;;;;;1.7;1.7;;;;;;;6.0;100.0;101370;;;;
2023/01/30 05:36:01;;;;;;;1.7;1.7;;;;;;;6.0;100.0;101370;;;;
2023/01/30 05:37:00;;;;;;;1.7;1.7;;;;;;;6.0;100.0;101370;;;;
2023/01/30 05:38:01;;;;;;;1.7;1.7;;;;;;;6.0;100.0;101370;;;;
2023/01/30 05:39:00;;;;;;;1.7;1.7;;;;;;;5.9;100.0;101370;;;;
2023/01/30 05:40:00;;;;;;;1.7;1.7;;;;;;;5.9;100.0;101370;;;;
2023/01/30 05:41:01;;;;;;;1.7;1.7;;;;;;;5.9;100.0;101370;;;;
2023/01/30 05:42:00;;;;;;;1.7;1.7;;;;;;;5.9;100.0;101370;;;;
2023/01/30 05:43:00;;;;;;;1.7;1.7;;;;;;;6.1;100.0;101360;;;;
2023/01/30 05:44:00;;;;;;;1.7;1.7;;;;;;;6.1;100.0;101360;;;;
2023/01/30 05:45:00;;;;;;;1.7;1.7;;;;;;;6.1;100.0;101360;;;;
2023/01/30 05:46:01;;;;;;;3.0;2.9;;;;;;;6.1;100.0;101360;;;;
2023/01/30 05:47:00;;;;;;;3.0;2.9;;;;;;;6.1;100.0;101360;;;;
2023/01/30 05:48:01;;;;;;;3.0;2.9;;;;;;;6.1;100.0;101360;;;;
2023/01/30 05:49:03;;;;;;;3.0;2.9;;;;;;;5.9;100.0;101360;;;;
2023/01/30 05:50:00;;;;;;;3.0;2.9;;;;;;;5.9;100.0;101360;;;;
2023/01/30 05:51:00;;;;;;;3.0;2.9;;;;;;;5.9;100.0;101370;;;;
2023/01/30 05:52:00;;;;;;;3.0;2.9;;;;;;;5.9;100.0;101370;;;;
2023/01/30 05:53:00;;;;;;;3.0;2.9;;;;;;;6.0;100.0;101370;;;;
2023/01/30 05:54:00;;;;;;;3.0;2.9;;;;;;;6.0;100.0;101370;;;;
2023/01/30 05:55:00;;;;;;;3.0;2.9;;;;;;;5.9;100.0;101370;;;;
2023/01/30 05:56:02;;;;;;;3.0;2.9;;;;;;;5.9;100.0;101370;;;;
2023/01/30 05:57:00;;;;;;;3.0;2.9;;;;;;;6.0;100.0;101380;;;;
2023/01/30 05:58:00;;;;;;;3.0;2.9;;;;;;;6.0;100.0;101380;;;;
2023/01/30 05:59:01;;;;;;;3.0;2.9;;;;;;;5.9;100.0;101380;;;;
2023/01/30 06:00:00;;;;;;;3.0;2.9;;;;;;;5.9;100.0;101380;;;;
2023/01/30 06:01:01;;;;;;;3.0;2.9;;;;;;;6.1;100.0;101380;;;;
2023/01/30 06:02:00;;;;;;;3.0;2.9;;;;;;;6.1;100.0;101380;;;;
2023/01/30 06:03:00;;;;;;;3.0;2.9;;;;;;;6.1;100.0;101380;;;;
2023/01/30 06:04:01;;;;;;;3.0;2.9;;;;;;;6.1;100.0;101380;;;;
2023/01/30 06:05:00;;;;;;;1.4;1.4;;;;;;;6.0;100.0;101380;;;;
2023/01/30 06:06:01;;;;;;;1.4;1.4;;;;;;;6.0;100.0;101380;;;;
2023/01/30 06:07:00;;;;;;;1.4;1.4;;;;;;;6.0;100.0;101370;;;;
2023/01/30 06:08:00;;;;;;;1.4;1.4;;;;;;;6.0;100.0;101370;;;;
2023/01/30 06:09:00;;;;;;;1.4;1.4;;;;;;;6.0;100.0;101390;;;;
2023/01/30 06:10:00;;;;;;;1.4;1.4;;;;;;;6.0;100.0;101390;;;;
2023/01/30 06:11:01;;;;;;;1.4;1.4;;;;;;;6.1;100.0;101390;;;;
2023/01/30 06:12:00;;;;;;;1.4;1.4;;;;;;;6.1;100.0;101390;;;;
2023/01/30 06:13:00;;;;;;;1.4;1.4;;;;;;;6.1;100.0;101390;;;;
2023/01/30 06:14:00;;;;;;;1.4;1.4;;;;;;;6.1;100.0;101390;;;;
2023/01/30 06:15:00;;;;;;;1.4;1.4;;;;;;;6.1;100.0;101380;;;;
2023/01/30 06:16:00;;;;;;;1.4;1.4;;;;;;;6.1;100.0;101380;;;;
2023/01/30 06:17:00;;;;;;;1.4;1.4;;;;;;;6.1;100.0;101390;;;;
2023/01/30 06:18:00;;;;;;;1.4;1.4;;;;;;;6.1;100.0;101390;;;;
2023/01/30 06:19:00;;;;;;;1.4;1.4;;;;;;;6.0;100.0;101390;;;;
2023/01/30 06:20:00;;;;;;;1.4;1.4;;;;;;;6.0;100.0;101390;;;;
2023/01/30 06:21:00;;;;;;;1.4;1.4;;;;;;;6.0;100.0;101400;;;;
2023/01/30 06:22:01;;;;;;;1.4;1.4;;;;;;;6.0;100.0;101400;;;;
2023/01/30 06:23:00;;;;;;;1.4;1.4;;;;;;;6.0;100.0;101400;;;;
2023/01/30 06:24:01;;;;;;;1.4;1.4;;;;;;;6.0;100.0;101400;;;;
2023/01/30 06:25:00;;;;;;;1.7;1.7;;;;;;;6.1;100.0;101410;;;;
2023/01/30 06:26:03;;;;;;;1.7;1.7;;;;;;;6.1;100.0;101410;;;;
2023/01/30 06:27:00;;;;;;;1.7;1.7;;;;;;;6.1;100.0;101410;;;;
2023/01/30 06:28:00;;;;;;;1.7;1.7;;;;;;;6.1;100.0;101410;;;;
2023/01/30 06:29:00;;;;;;;1.7;1.7;;;;;;;6.1;100.0;101400;;;;
2023/01/30 06:30:00;;;;;;;1.7;1.7;;;;;;;6.1;100.0;101400;;;;
2023/01/30 06:31:00;;;;;;;1.7;1.7;;;;;;;6.0;100.0;101410;;;;
2023/01/30 06:32:00;;;;;;;1.7;1.7;;;;;;;6.0;100.0;101410;;;;
2023/01/30 06:33:00;;;;;;;1.7;1.7;;;;;;;6.0;100.0;101410;;;;
2023/01/30 06:34:00;;;;;;;1.7;1.7;;;;;;;6.0;100.0;101410;;;;
2023/01/30 06:35:00;;;;;;;1.7;1.7;;;;;;;6.1;100.0;101420;;;;